Surface observations / UK / EGMC

Quebec | Canada | USA | France | UK | Europe | Elsewhere

Display: Info & Location for EGMC | Help decoding METAR

EGMC SOUTHEND-ON-SEA -- UK
Raw surface observations for station EGMC
EGMC 280150Z 33006KT 9999 FEW045 17/12 Q1014=
EGMC 280050Z 32005KT CAVOK 17/12 Q1014=
EGMC 272350Z 33003KT 9999 FEW040 18/15 Q1014=
EGMC 272320Z 33003KT 9999 SCT045 18/15 Q1015=
EGMC 272250Z 34004KT 9999 SCT047 18/15 Q1015=
EGMC 272220Z 31005KT 9999 BKN045 18/16 Q1015=
EGMC 272150Z 24006KT 9999 FEW015 SCT045 19/16 Q1015=
EGMC 272120Z VRB03KT 9999 -SHRA FEW015 SCT042 18/16 Q1014=
EGMC 272050Z 26005KT 9999 -SHRA FEW015 SCT033 19/16 Q1014=
EGMC 272020Z 20005KT 9999 VCSH FEW010 BKN031 20/17 Q1014=
EGMC 271950Z 00000KT 9999 VCSH BKN031 19/16 Q1014=
EGMC 271920Z 24009KT 9999 SHRA BKN038 BKN048 22/15 Q1014=
EGMC 271850Z 22008KT 9999 SCT040 22/15 Q1014=
EGMC 271820Z 22008KT 9999 SCT040 22/15 Q1014=
EGMC 271750Z 24010KT 9999 FEW044 23/14 Q1014=
EGMC 271720Z 24011KT 9999 FEW031 23/14 Q1014=
EGMC 271650Z 22012KT 9999 FEW031 24/15 Q1014=
EGMC 271620Z 23013KT 9999 FEW030 24/16 Q1014=
EGMC 271550Z 23013KT 9999 FEW026 24/16 Q1014=
EGMC 271520Z 21014KT 9999 FEW025 23/16 Q1014=
EGMC 271450Z 22012KT 9999 FEW026 23/15 Q1014=
EGMC 271420Z 23012KT 9999 FEW022 22/15 Q1014=
EGMC 271350Z 23014KT 9999 FEW022 SCT040 22/16 Q1014=
EGMC 271320Z 24011KT 9999 FEW021 SCT040 21/15 Q1015=
EGMC 271250Z 25010KT 9999 FEW019 SCT025 20/15 Q1015=
EGMC 271220Z 25011KT 9999 SCT021 BKN039 20/15 Q1015=
EGMC 271150Z 25012KT 9999 FEW016 BKN022 20/16 Q1015=
EGMC 271120Z 25010KT 9999 SCT016 BKN022 20/15 Q1015=
EGMC 271050Z 23012KT 9999 FEW017 BKN021 19/15 Q1015=
EGMC 271020Z 24011KT 9999 FEW013 SCT015 BKN020 19/16 Q1015=
EGMC 270950Z 23011KT 9999 SCT013 BKN015 19/16 Q1015=
EGMC 270920Z 23011KT 9999 BKN007 18/16 Q1015=
EGMC 270850Z 23012KT 6000 2000N -RADZ BKN008 18/16 Q1015=
EGMC 270820Z 23013KT 6000 -RADZ SCT013 BKN017 18/15 Q1015=
EGMC 270750Z 22014KT 9000 -RADZ FEW013 BKN016 19/15 Q1015=
EGMC 270720Z 22013KT 9999 FEW011 BKN016 18/14 Q1015=
EGMC 270650Z 22013KT 9999 FEW015 BKN018 18/14 Q1015=
EGMC 270620Z 22013KT 9999 FEW014 SCT017 18/14 Q1015=
EGMC 270550Z 22011KT 9999 SCT015 BKN017 18/14 Q1015=
EGMC 270520Z 22011KT 9999 SCT016 BKN019 15/12 Q1015=
EGMC 270450Z 22010KT 9999 SCT018 BKN049 17/14 Q1016=
EGMC 270420Z 21010KT 9999 FEW018 SCT049 17/14 Q1016=
EGMC 270350Z 22009KT 9999 FEW017 SCT049 17/14 Q1016=
EGMC 270250Z 22009KT CAVOK 16/13 Q1016=